Terminal Aerodrome Forecast
Issued by NWS

Home | Current Version | Previous Version | Text Only | Print | Product List | Glossary On
Versions: 1 2 3 4 5 6 7 8 9 10 11 12 13 14 15
000
FTUS44 KBMX 100500
TAFMGM
TAF
KMGM 100532Z 1006/1106 20003KT P6SM SCT030 BKN110
     FM100800 24003KT 5SM BR BKN110
     FM101400 29007KT P6SM SCT050 BKN080
     FM101800 29008KT P6SM VCTS SCT050 BKN080CB
     FM110100 30003KT P6SM SKC=

USA.gov is the U.S. government's official web portal to all federal, state and local government web resources and services.